createdAt,value
2022-09-09T00:02:55.920Z,97783.06
2022-09-09T00:06:05.736Z,97783.50
2022-09-09T00:09:13.135Z,97771.41
2022-09-09T00:12:18.369Z,97781.50
2022-09-09T00:15:21.666Z,97770.75
2022-09-09T00:18:30.370Z,97768.19
2022-09-09T00:21:34.163Z,97767.03
2022-09-09T00:24:40.084Z,97768.72
2022-09-09T00:27:45.844Z,97763.25
2022-09-09T00:30:53.379Z,97769.22
2022-09-09T00:33:59.985Z,97765.06
2022-09-09T00:37:04.521Z,97755.41
2022-09-09T00:40:12.687Z,97759.19
2022-09-09T00:43:27.199Z,97767.47
2022-09-09T00:46:41.791Z,97758.91
2022-09-09T00:49:50.988Z,97755.47
2022-09-09T00:52:58.683Z,97759.88
2022-09-09T00:56:06.580Z,97756.25
2022-09-09T00:59:17.717Z,97748.06
2022-09-09T01:02:26.396Z,97755.25
2022-09-09T01:05:34.615Z,97757.19
2022-09-09T01:08:51.005Z,97759.13
2022-09-09T01:11:56.857Z,97759.13
2022-09-09T01:15:04.558Z,97757.53
2022-09-09T01:18:08.323Z,97759.13
2022-09-09T01:21:18.803Z,97769.00
2022-09-09T01:24:23.297Z,97769.38
2022-09-09T01:27:26.847Z,97774.59
2022-09-09T01:30:29.210Z,97779.75
2022-09-09T01:33:31.446Z,97779.50
2022-09-09T01:36:39.684Z,97788.94
2022-09-09T01:39:42.900Z,97787.84
2022-09-09T01:42:46.043Z,97780.66
2022-09-09T01:45:50.739Z,97788.94
2022-09-09T01:48:53.590Z,97781.25
2022-09-09T01:51:58.756Z,97783.16
2022-09-09T01:55:00.476Z,97784.25
2022-09-09T01:58:14.532Z,97785.34
2022-09-09T02:01:19.646Z,97776.56
2022-09-09T02:04:28.542Z,97778.16
2022-09-09T02:07:38.409Z,97770.09
2022-09-09T02:10:43.568Z,97772.66
2022-09-09T02:13:48.407Z,97771.06
2022-09-09T02:16:52.343Z,97758.09
2022-09-09T02:19:56.371Z,97777.41
2022-09-09T02:22:58.528Z,97774.84
2022-09-09T02:26:01.300Z,97778.50
2022-09-09T02:29:07.281Z,97779.13
2022-09-09T02:32:14.098Z,97772.25
2022-09-09T02:35:18.479Z,97774.94
2022-09-09T02:38:22.366Z,97773.34
2022-09-09T02:41:27.123Z,97781.50
2022-09-09T02:44:30.636Z,97775.41
2022-09-09T02:47:35.459Z,97769.44
2022-09-09T02:50:47.929Z,97778.88
2022-09-09T02:53:55.176Z,97781.16
2022-09-09T02:56:57.639Z,97783.44
2022-09-09T03:00:04.428Z,97788.22
2022-09-09T03:03:06.708Z,97789.44
2022-09-09T03:06:08.603Z,97790.75
2022-09-09T03:09:12.820Z,97790.09
2022-09-09T03:12:14.510Z,97787.53
2022-09-09T03:15:18.298Z,97787.72
2022-09-09T03:18:20.132Z,97786.50
2022-09-09T03:21:21.919Z,97789.53
2022-09-09T03:24:23.880Z,97789.53
2022-09-09T03:27:25.715Z,97780.63
2022-09-09T03:30:29.160Z,97786.75
2022-09-09T03:33:32.444Z,97782.22
2022-09-09T03:36:34.182Z,97798.09
2022-09-09T03:39:36.243Z,97795.09
2022-09-09T03:42:40.737Z,97782.78
2022-09-09T03:45:47.286Z,97790.69
2022-09-09T03:48:49.477Z,97781.69
2022-09-09T03:51:52.468Z,97784.25
2022-09-09T03:54:54.878Z,97786.06
2022-09-09T03:57:56.716Z,97784.13
2022-09-09T04:01:01.137Z,97780.47
2022-09-09T04:04:03.378Z,97783.16
2022-09-09T04:07:10.288Z,97777.91
2022-09-09T04:10:12.762Z,97769.00
2022-09-09T04:13:15.254Z,97767.06
2022-09-09T04:19:57.558Z,97757.94
2022-09-09T04:22:59.186Z,97758.56
2022-09-09T04:26:01.690Z,97760.28
2022-09-09T04:29:04.023Z,97766.16
2022-09-09T04:32:06.357Z,97760.78
2022-09-09T04:35:09.646Z,97762.72
2022-09-09T04:38:11.398Z,97767.34
2022-09-09T04:41:13.389Z,97784.06
2022-09-09T04:44:15.159Z,97781.19
2022-09-09T04:47:17.965Z,97784.81
2022-09-09T04:50:21.268Z,97797.38
2022-09-09T04:53:23.192Z,97799.97
2022-09-09T04:56:28.131Z,97792.78
2022-09-09T04:59:30.005Z,97791.81
2022-09-09T05:02:33.898Z,97798.03
2022-09-09T05:05:37.613Z,97804.25
2022-09-09T05:08:43.180Z,97807.91
2022-09-09T05:11:45.076Z,97800.59
2022-09-09T05:14:47.023Z,97804.97
2022-09-09T05:17:50.375Z,97813.03
2022-09-09T05:20:53.861Z,97813.03
2022-09-09T05:23:55.845Z,97808.63
2022-09-09T05:26:59.696Z,97804.25
2022-09-09T05:30:01.469Z,97804.25
2022-09-09T05:33:04.526Z,97808.63
2022-09-09T05:36:09.173Z,97813.03
2022-09-09T05:39:13.199Z,97797.91
2022-09-09T05:42:19.200Z,97812.28
2022-09-09T05:45:20.964Z,97815.59
2022-09-09T05:48:22.639Z,97812.91
2022-09-09T05:51:26.273Z,97812.91
2022-09-09T05:54:29.515Z,97813.88
2022-09-09T05:57:31.269Z,97825.34
2022-09-09T06:00:33.310Z,97827.81
2022-09-09T06:03:35.670Z,97824.78
2022-09-09T06:06:40.617Z,97828.09
2022-09-09T06:09:44.878Z,97814.44
2022-09-09T06:12:46.625Z,97820.47
2022-09-09T06:15:52.304Z,97817.41
2022-09-09T06:18:57.530Z,97818.06
2022-09-09T06:22:01.681Z,97821.00
2022-09-09T06:25:03.891Z,97822.25
2022-09-09T06:28:06.169Z,97820.44
2022-09-09T06:31:09.089Z,97825.44
2022-09-09T06:34:12.759Z,97817.94
2022-09-09T06:37:16.620Z,97817.38
2022-09-09T06:40:19.075Z,97812.38
2022-09-09T06:43:21.833Z,97813.25
2022-09-09T06:46:24.072Z,97818.31
2022-09-09T06:49:26.182Z,97813.28
2022-09-09T06:52:29.534Z,97815.00
2022-09-09T06:55:31.365Z,97819.44
2022-09-09T06:58:33.495Z,97822.84
2022-09-09T07:01:39.178Z,97821.13
2022-09-09T07:04:40.996Z,97824.56
2022-09-09T07:07:47.256Z,97826.28
2022-09-09T07:10:49.060Z,97826.16
2022-09-09T07:13:50.977Z,97824.44
2022-09-09T07:16:55.451Z,97830.78
2022-09-09T07:20:00.910Z,97827.97
2022-09-09T07:23:04.258Z,97827.72
2022-09-09T07:26:11.802Z,97830.41
2022-09-09T07:29:18.502Z,97837.50
2022-09-09T07:32:26.732Z,97839.22
2022-09-09T07:35:28.666Z,97838.13
2022-09-09T07:38:31.863Z,97834.72
2022-09-09T07:41:35.506Z,97832.13
2022-09-09T07:44:37.618Z,97826.75
2022-09-09T07:47:39.329Z,97832.88
2022-09-09T07:50:41.244Z,97830.94
2022-09-09T07:53:44.556Z,97836.91
2022-09-09T07:56:46.421Z,97829.22
2022-09-09T07:59:50.586Z,97841.31
2022-09-09T08:02:58.250Z,97833.88
2022-09-09T08:06:05.636Z,97838.75
2022-09-09T08:09:09.750Z,97834.09
2022-09-09T08:12:14.210Z,97830.81
2022-09-09T08:15:15.790Z,97834.97
2022-09-09T08:18:17.487Z,97828.25
2022-09-09T08:21:26.912Z,97824.22
2022-09-09T08:24:30.433Z,97824.59
2022-09-09T08:27:33.277Z,97820.06
2022-09-09T08:30:34.786Z,97832.06
2022-09-09T08:33:38.598Z,97834.22
2022-09-09T08:36:42.965Z,97838.88
2022-09-09T08:39:46.492Z,97837.72
2022-09-09T08:42:50.707Z,97849.59
2022-09-09T08:45:57.833Z,97853.84
2022-09-09T08:49:03.140Z,97859.16
2022-09-09T08:52:11.670Z,97850.06
2022-09-09T08:55:22.462Z,97860.78
2022-09-09T08:58:27.245Z,97858.72
2022-09-09T09:01:44.013Z,97859.97
2022-09-09T09:05:03.257Z,97854.56
2022-09-09T09:08:09.546Z,97864.59
2022-09-09T09:11:12.583Z,97853.47
2022-09-09T09:14:19.805Z,97853.84
2022-09-09T09:17:22.458Z,97854.50
2022-09-09T09:20:28.421Z,97861.88
2022-09-09T09:23:36.591Z,97864.44
2022-09-09T09:26:39.759Z,97846.41
2022-09-09T09:30:03.505Z,97854.59
2022-09-09T09:33:07.460Z,97862.16
2022-09-09T09:36:09.565Z,97851.38
2022-09-09T09:42:35.209Z,97847.00
2022-09-09T09:45:46.740Z,97842.25
2022-09-09T09:48:58.543Z,97838.78
2022-09-09T09:52:01.375Z,97847.22
2022-09-09T09:55:07.846Z,97844.09
2022-09-09T09:58:18.600Z,97843.97
2022-09-09T10:01:21.895Z,97837.78
2022-09-09T10:04:27.317Z,97841.41
2022-09-09T10:07:30.374Z,97841.91
2022-09-09T10:10:47.452Z,97833.66
2022-09-09T10:13:58.894Z,97841.41
2022-09-09T10:17:10.830Z,97842.81
2022-09-09T10:20:21.721Z,97846.28
2022-09-09T10:23:31.030Z,97853.19
2022-09-09T10:26:37.196Z,97879.94
2022-09-09T10:29:48.371Z,97888.25
2022-09-09T10:32:53.907Z,97871.41
2022-09-09T10:36:02.748Z,97872.97
2022-09-09T10:39:06.319Z,97874.00
2022-09-09T10:42:10.772Z,97867.66
2022-09-09T10:45:20.709Z,97864.13
2022-09-09T10:48:31.828Z,97860.44
2022-09-09T10:51:38.773Z,97850.47
2022-09-09T10:54:47.818Z,97843.16
2022-09-09T10:57:50.629Z,97845.47
2022-09-09T11:00:59.060Z,97847.03
2022-09-09T11:04:03.553Z,97848.59
2022-09-09T11:07:11.662Z,97846.63
2022-09-09T11:10:19.890Z,97843.44
2022-09-09T11:13:25.645Z,97835.72
2022-09-09T11:16:31.889Z,97846.59
2022-09-09T11:19:35.415Z,97846.59
2022-09-09T11:22:39.784Z,97855.53
2022-09-09T11:25:43.142Z,97843.25
2022-09-09T11:28:53.042Z,97838.47
2022-09-09T11:32:04.765Z,97843.91
2022-09-09T11:35:15.076Z,97847.00
2022-09-09T11:38:26.491Z,97840.88
2022-09-09T11:41:35.762Z,97840.84
2022-09-09T11:47:40.884Z,97834.06
2022-09-09T11:50:43.227Z,97836.66
2022-09-09T11:53:52.326Z,97838.97
2022-09-09T11:56:54.662Z,97839.91
2022-09-09T12:00:06.657Z,97831.59
2022-09-09T12:03:31.062Z,97834.44
2022-09-09T12:06:34.117Z,97838.44
2022-09-09T12:09:47.797Z,97831.44
2022-09-09T12:12:50.290Z,97837.97
2022-09-09T12:15:54.305Z,97831.03
2022-09-09T12:19:04.174Z,97828.47
2022-09-09T12:22:09.119Z,97827.59
2022-09-09T12:25:21.365Z,97816.78
2022-09-09T12:28:27.023Z,97819.38
2022-09-09T12:31:33.546Z,97816.53
2022-09-09T12:34:39.569Z,97821.22
2022-09-09T12:37:43.800Z,97825.22
2022-09-09T12:40:55.112Z,97819.91
2022-09-09T12:44:05.079Z,97819.75
2022-09-09T12:47:06.691Z,97817.38
2022-09-09T12:50:17.878Z,97814.56
2022-09-09T12:53:26.191Z,97817.94
2022-09-09T12:56:30.604Z,97821.69
2022-09-09T12:59:37.156Z,97817.09
2022-09-09T13:02:46.373Z,97807.97
2022-09-09T13:05:50.131Z,97807.06
2022-09-09T13:08:52.328Z,97809.31
2022-09-09T13:11:57.532Z,97811.41
2022-09-09T13:14:59.236Z,97802.38
2022-09-09T13:18:05.735Z,97802.59
2022-09-09T13:21:09.462Z,97799.88
2022-09-09T13:24:28.070Z,97803.56
2022-09-09T13:27:31.393Z,97800.91
2022-09-09T13:30:37.486Z,97798.09
2022-09-09T13:33:40.248Z,97795.09
2022-09-09T13:36:49.844Z,97786.25
2022-09-09T13:39:54.370Z,97794.06
2022-09-09T13:42:57.446Z,97792.53
2022-09-09T13:46:00.541Z,97792.69
2022-09-09T13:49:03.453Z,97785.59
2022-09-09T13:52:09.780Z,97795.34
2022-09-09T13:55:11.319Z,97794.50
2022-09-09T13:58:16.830Z,97799.34
2022-09-09T14:01:18.966Z,97790.34
2022-09-09T14:04:27.139Z,97796.66
2022-09-09T14:07:31.411Z,97798.22
2022-09-09T14:10:33.251Z,97792.28
2022-09-09T14:13:35.619Z,97792.31
2022-09-09T14:16:38.725Z,97787.25
2022-09-09T14:19:40.498Z,97779.56
2022-09-09T14:22:45.352Z,97776.97
2022-09-09T14:25:47.738Z,97783.16
2022-09-09T14:28:57.165Z,97768.94
2022-09-09T14:32:08.336Z,97771.75
2022-09-09T14:35:13.784Z,97769.22
2022-09-09T14:38:19.163Z,97761.88
2022-09-09T14:41:23.590Z,97763.16
2022-09-09T14:44:25.339Z,97768.19
2022-09-09T14:47:34.071Z,97766.22
2022-09-09T14:50:40.774Z,97771.31
2022-09-09T14:53:44.420Z,97770.47
2022-09-09T14:56:46.197Z,97767.09
2022-09-09T14:59:47.948Z,97766.72
2022-09-09T15:02:52.951Z,97770.31
2022-09-09T15:05:54.702Z,97767.94
2022-09-09T15:09:03.883Z,97764.56
2022-09-09T15:12:05.767Z,97762.91
2022-09-09T15:15:08.237Z,97763.34
2022-09-09T15:18:11.331Z,97764.94
2022-09-09T15:21:14.331Z,97760.13
2022-09-09T15:24:19.989Z,97768.09
2022-09-09T15:27:22.563Z,97770.09
2022-09-09T15:30:24.231Z,97774.09
2022-09-09T15:33:30.449Z,97779.09
2022-09-09T15:36:35.955Z,97777.50
2022-09-09T15:39:39.162Z,97772.09
2022-09-09T15:42:41.221Z,97770.25
2022-09-09T15:45:43.146Z,97773.84
2022-09-09T15:48:47.449Z,97769.53
2022-09-09T15:51:52.107Z,97769.16
2022-09-09T15:54:55.928Z,97770.00
2022-09-09T15:57:59.587Z,97766.84
2022-09-09T16:01:04.550Z,97757.03
2022-09-09T16:04:06.357Z,97763.75
2022-09-09T16:07:09.067Z,97767.03
2022-09-09T16:10:14.694Z,97754.81
2022-09-09T16:13:16.780Z,97763.47
2022-09-09T16:16:23.010Z,97769.03
2022-09-09T16:19:25.985Z,97767.44
2022-09-09T16:22:27.754Z,97776.69
2022-09-09T16:25:39.031Z,97775.00
2022-09-09T16:28:40.942Z,97771.00
2022-09-09T16:31:43.105Z,97775.84
2022-09-09T16:34:44.880Z,97770.84
2022-09-09T16:37:46.834Z,97784.81
2022-09-09T16:40:51.164Z,97774.69
2022-09-09T16:43:53.806Z,97779.53
2022-09-09T16:47:00.383Z,97785.25
2022-09-09T16:50:04.227Z,97783.78
2022-09-09T16:53:07.766Z,97779.81
2022-09-09T16:56:15.045Z,97776.13
2022-09-09T16:59:19.024Z,97778.78
2022-09-09T17:02:21.054Z,97785.03
2022-09-09T17:05:24.384Z,97801.09
2022-09-09T17:08:26.204Z,97791.69
2022-09-09T17:11:29.770Z,97794.81
2022-09-09T17:14:32.259Z,97796.72
2022-09-09T17:17:33.989Z,97805.25
2022-09-09T17:20:45.964Z,97807.91
2022-09-09T17:23:49.449Z,97815.81
2022-09-09T17:26:53.099Z,97829.03
2022-09-09T17:29:55.387Z,97816.75
2022-09-09T17:32:56.992Z,97825.81
2022-09-09T17:36:00.378Z,97831.88
2022-09-09T17:39:02.381Z,97846.59
2022-09-09T17:42:05.869Z,97855.56
2022-09-09T17:45:07.791Z,97858.28
2022-09-09T17:48:09.304Z,97843.78
2022-09-09T17:51:12.910Z,97852.72
2022-09-09T17:54:15.803Z,97876.66
2022-09-09T17:57:20.293Z,97863.38
2022-09-09T18:00:22.047Z,97866.16
2022-09-09T18:03:37.540Z,97860.44
2022-09-09T18:06:40.157Z,97866.84
2022-09-09T18:09:42.872Z,97884.66
2022-09-09T18:12:46.312Z,97872.81
2022-09-09T18:15:49.613Z,97882.47
2022-09-09T18:18:52.235Z,97868.28
2022-09-09T18:21:56.429Z,97866.19
2022-09-09T18:25:04.469Z,97872.19
2022-09-09T18:28:08.855Z,97883.06
2022-09-09T18:31:12.167Z,97878.66
2022-09-09T18:34:14.956Z,97879.50
2022-09-09T18:37:19.375Z,97886.84
2022-09-09T18:40:21.267Z,97888.78
2022-09-09T18:43:24.989Z,97891.06
2022-09-09T18:46:28.064Z,97883.00
2022-09-09T18:49:29.938Z,97891.06
2022-09-09T18:52:32.246Z,97885.66
2022-09-09T18:55:34.126Z,97892.28
2022-09-09T18:58:37.517Z,97895.22
2022-09-09T19:01:39.304Z,97891.91
2022-09-09T19:04:41.074Z,97885.78
2022-09-09T19:07:42.847Z,97890.44
2022-09-09T19:10:44.800Z,97888.84
2022-09-09T19:13:51.820Z,97890.53
2022-09-09T19:16:53.902Z,97891.75
2022-09-09T19:19:55.668Z,97885.00
2022-09-09T19:22:57.623Z,97900.28
2022-09-09T19:26:03.153Z,97896.97
2022-09-09T19:29:06.778Z,97902.34
2022-09-09T19:35:30.096Z,97908.03
2022-09-09T19:38:32.267Z,97908.16
2022-09-09T19:41:38.236Z,97907.53
2022-09-09T19:44:41.745Z,97909.25
2022-09-09T19:47:44.250Z,97905.81
2022-09-09T19:50:45.898Z,97906.00
2022-09-09T19:53:53.543Z,97908.19
2022-09-09T19:56:55.447Z,97910.00
2022-09-09T19:59:58.672Z,97905.84
2022-09-09T20:03:18.002Z,97921.31
2022-09-09T20:06:21.191Z,97921.31
2022-09-09T20:09:22.842Z,97923.25
2022-09-09T20:12:25.982Z,97920.34
2022-09-09T20:15:29.108Z,97915.19
2022-09-09T20:18:32.533Z,97920.06
2022-09-09T20:21:35.525Z,97913.94
2022-09-09T20:24:37.187Z,97921.34
2022-09-09T20:27:38.741Z,97923.19
2022-09-09T20:30:42.652Z,97930.16
2022-09-09T20:33:44.343Z,97924.78
2022-09-09T20:36:46.617Z,97928.31
2022-09-09T20:39:48.551Z,97921.97
2022-09-09T20:42:51.532Z,97938.00
2022-09-09T20:45:57.977Z,97927.81
2022-09-09T20:49:03.084Z,97926.09
2022-09-09T20:52:05.149Z,97939.44
2022-09-09T20:55:07.879Z,97935.06
2022-09-09T20:58:12.219Z,97936.03
2022-09-09T21:01:16.479Z,97937.06
2022-09-09T21:04:19.796Z,97942.91
2022-09-09T21:07:21.540Z,97943.53
2022-09-09T21:10:23.080Z,97942.16
2022-09-09T21:13:26.693Z,97945.34
2022-09-09T21:16:29.849Z,97947.06
2022-09-09T21:19:31.606Z,97941.59
2022-09-09T21:22:33.463Z,97954.56
2022-09-09T21:25:35.158Z,97951.34
2022-09-09T21:28:37.189Z,97952.56
2022-09-09T21:31:40.655Z,97956.22
2022-09-09T21:34:46.278Z,97947.19
2022-09-09T21:37:47.950Z,97954.50
2022-09-09T21:40:50.261Z,97958.16
2022-09-09T21:43:52.753Z,97952.13
2022-09-09T21:46:56.666Z,97956.63
2022-09-09T21:49:58.451Z,97950.41
2022-09-09T21:53:00.030Z,97956.75
2022-09-09T21:56:02.134Z,97948.06
2022-09-09T21:59:04.862Z,97962.66
2022-09-09T22:02:11.010Z,97960.06
2022-09-09T22:05:13.028Z,97962.75
2022-09-09T22:08:16.622Z,97960.19
2022-09-09T22:11:19.439Z,97964.59
2022-09-09T22:14:21.564Z,97955.44
2022-09-09T22:17:25.203Z,97956.34
2022-09-09T22:20:26.956Z,97961.69
2022-09-09T22:23:29.609Z,97967.81
2022-09-09T22:26:33.596Z,97959.03
2022-09-09T22:29:35.506Z,97961.78
2022-09-09T22:32:38.936Z,97964.59
2022-09-09T22:35:42.545Z,97969.94
2022-09-09T22:38:44.311Z,97973.47
2022-09-09T22:41:48.312Z,97966.53
2022-09-09T22:44:49.830Z,97967.25
2022-09-09T22:47:52.976Z,97967.50
2022-09-09T22:50:54.527Z,97966.75
2022-09-09T22:53:57.980Z,97967.91
2022-09-09T22:56:59.897Z,97961.81
2022-09-09T23:00:01.564Z,97962.66
2022-09-09T23:03:04.458Z,97958.50
2022-09-09T23:06:08.104Z,97962.25
2022-09-09T23:09:13.686Z,97955.25
2022-09-09T23:12:16.191Z,97950.97
2022-09-09T23:15:17.865Z,97945.59
2022-09-09T23:18:22.294Z,97956.44
2022-09-09T23:21:26.286Z,97946.69
2022-09-09T23:24:28.285Z,97957.53
2022-09-09T23:27:30.329Z,97952.16
2022-09-09T23:30:31.833Z,97955.59
2022-09-09T23:33:35.504Z,97957.41
2022-09-09T23:36:37.897Z,97953.88
2022-09-09T23:39:40.526Z,97957.53
2022-09-09T23:42:47.953Z,97951.59
2022-09-09T23:45:52.880Z,97940.38
2022-09-09T23:48:57.130Z,97936.94
2022-09-09T23:52:00.381Z,97940.78
2022-09-09T23:55:01.791Z,97935.63
2022-09-09T23:58:03.456Z,97935.13
